Time;durP1;ratioP1;P1;durP2;ratioP2;P2;SDS_P1;SDS_P2;PMS_P1;PMS_P2;Temp;Humidity;BMP_temperature;BMP_pressure;BME280_temperature;BME280_humidity;BME280_pressure;Samples;Min_cycle;Max_cycle;Signal;HPM_P1;HPM_P2
2022/04/09 05:00:48;;;;;;;6.10;3.30;;;2.70;99.90;;;;;;5649446;23;20037;-93
2022/04/09 05:03:16;;;;;;;6.28;3.78;;;2.80;99.90;;;;;;4868043;29;20045;-81
2022/04/09 05:05:43;;;;;;;6.20;3.70;;;2.80;99.90;;;;;;4877905;29;20052;-82
2022/04/09 05:08:10;;;;;;;6.30;3.88;;;2.80;99.90;;;;;;4870988;29;20060;-83
2022/04/09 05:10:37;;;;;;;6.35;3.83;;;2.80;99.90;;;;;;4856867;29;20123;-83
2022/04/09 05:13:05;;;;;;;7.32;4.07;;;2.80;99.90;;;;;;4874293;29;20055;-82
2022/04/09 05:15:32;;;;;;;6.18;4.07;;;2.70;99.90;;;;;;4884291;29;20127;-83
2022/04/09 05:18:02;;;;;;;7.28;4.85;;;2.80;99.90;;;;;;4870346;29;20451;-84
2022/04/09 05:20:29;;;;;;;7.07;4.70;;;2.90;99.90;;;;;;4882150;29;20630;-82
2022/04/09 05:22:56;;;;;;;7.75;4.40;;;2.80;99.90;;;;;;4876493;29;20049;-82
2022/04/09 05:25:25;;;;;;;8.90;4.20;;;2.80;99.90;;;;;;4868878;29;20088;-82
2022/04/09 05:27:52;;;;;;;7.80;4.63;;;2.80;99.90;;;;;;4880742;29;20052;-81
2022/04/09 05:30:23;;;;;;;7.30;4.60;;;2.80;99.90;;;;;;4888940;29;20057;-86
2022/04/09 05:32:50;;;;;;;7.20;4.78;;;2.90;99.90;;;;;;4887188;29;20121;-82
2022/04/09 05:35:18;;;;;;;9.32;4.90;;;2.80;99.90;;;;;;4876790;29;20045;-81
2022/04/09 05:37:48;;;;;;;7.65;4.68;;;2.90;99.90;;;;;;4878453;29;20137;-83
2022/04/09 05:40:16;;;;;;;8.63;5.30;;;2.90;99.90;;;;;;4873968;29;20049;-81
2022/04/09 05:42:43;;;;;;;9.93;6.22;;;2.90;99.90;;;;;;4874978;29;20147;-81
2022/04/09 05:45:11;;;;;;;9.02;6.05;;;2.80;99.90;;;;;;4875652;29;20128;-81
2022/04/09 05:47:40;;;;;;;9.43;6.05;;;2.90;99.90;;;;;;4875231;29;20049;-82
2022/04/09 05:50:09;;;;;;;10.80;5.90;;;2.90;99.90;;;;;;4891472;29;20394;-81
2022/04/09 05:52:38;;;;;;;11.25;6.35;;;2.90;99.90;;;;;;4889590;29;20056;-82
2022/04/09 05:55:07;;;;;;;9.38;6.03;;;3.00;99.90;;;;;;4880666;29;20049;-81
2022/04/09 05:57:34;;;;;;;9.60;6.00;;;2.90;99.90;;;;;;4869647;29;20045;-82
2022/04/09 06:00:04;;;;;;;9.07;5.75;;;2.90;99.90;;;;;;4878814;29;20041;-83
2022/04/09 06:02:31;;;;;;;8.80;5.50;;;2.90;99.90;;;;;;4893837;29;20061;-80
2022/04/09 06:04:58;;;;;;;9.85;6.00;;;2.90;99.90;;;;;;4887390;29;20479;-82
2022/04/09 06:07:26;;;;;;;8.93;5.90;;;2.90;99.90;;;;;;4879856;29;20452;-83
2022/04/09 06:09:55;;;;;;;9.43;5.88;;;2.90;99.90;;;;;;4876069;29;20071;-84
2022/04/09 06:12:22;;;;;;;8.48;5.68;;;2.80;99.90;;;;;;4883679;29;20068;-83
2022/04/09 06:14:49;;;;;;;10.57;5.95;;;2.80;99.90;;;;;;4881560;29;20048;-83
2022/04/09 06:17:17;;;;;;;8.75;5.90;;;2.90;99.90;;;;;;4891253;29;20048;-82
2022/04/09 06:19:46;;;;;;;10.05;6.05;;;2.90;99.90;;;;;;4887035;29;20396;-80
2022/04/09 06:22:14;;;;;;;10.65;5.55;;;2.90;99.90;;;;;;4888343;29;20483;-80
2022/04/09 06:24:41;;;;;;;10.23;5.82;;;2.90;99.90;;;;;;4882460;29;20097;-81
2022/04/09 06:27:12;;;;;;;9.75;5.55;;;2.90;99.90;;;;;;4884897;29;20488;-80
2022/04/09 06:29:40;;;;;;;10.20;5.90;;;2.90;99.90;;;;;;4891902;29;20067;-81
2022/04/09 06:32:08;;;;;;;10.52;5.75;;;2.90;99.90;;;;;;4893352;29;20398;-80
2022/04/09 06:34:35;;;;;;;10.32;5.97;;;3.00;99.90;;;;;;4874857;29;20521;-79
2022/04/09 06:37:02;;;;;;;9.55;5.78;;;3.00;99.90;;;;;;4894293;29;20048;-80
2022/04/09 06:39:29;;;;;;;8.13;5.57;;;3.10;99.90;;;;;;4885860;29;20041;-81
2022/04/09 06:41:56;;;;;;;9.40;6.05;;;3.20;99.90;;;;;;4893985;29;20040;-81
2022/04/09 06:44:27;;;;;;;9.32;6.03;;;3.30;99.90;;;;;;4891885;29;20050;-81
2022/04/09 06:46:54;;;;;;;10.38;6.10;;;3.40;99.90;;;;;;4894217;29;20048;-80
2022/04/09 06:49:21;;;;;;;11.15;6.18;;;3.50;99.90;;;;;;4882256;29;20064;-81
2022/04/09 06:51:48;;;;;;;9.40;6.90;;;3.50;99.90;;;;;;4886491;29;20414;-80
2022/04/09 06:54:15;;;;;;;10.05;6.50;;;3.50;99.90;;;;;;4868636;29;20053;-80
2022/04/09 06:56:44;;;;;;;10.57;6.85;;;3.50;99.90;;;;;;4879727;29;20132;-80
2022/04/09 06:59:11;;;;;;;11.80;6.60;;;3.60;99.90;;;;;;4874947;29;20415;-79
2022/04/09 07:01:39;;;;;;;8.50;5.90;;;3.70;99.90;;;;;;4862265;29;20562;-80
2022/04/09 07:04:07;;;;;;;10.90;6.03;;;3.70;99.90;;;;;;4861939;29;20076;-79
2022/04/09 07:06:35;;;;;;;9.43;5.55;;;3.60;99.90;;;;;;4867195;29;20060;-79
2022/04/09 07:09:03;;;;;;;8.48;5.78;;;3.60;99.90;;;;;;4876786;29;20052;-84
2022/04/09 07:11:30;;;;;;;9.00;5.55;;;3.70;99.90;;;;;;4880201;29;20141;-80
2022/04/09 07:13:57;;;;;;;10.50;6.30;;;3.70;99.90;;;;;;4862652;29;20392;-80
2022/04/09 07:16:24;;;;;;;8.00;4.95;;;3.90;99.90;;;;;;4867183;29;20059;-80
2022/04/09 07:18:53;;;;;;;8.45;4.93;;;3.80;99.90;;;;;;4862904;29;20050;-80
2022/04/09 07:21:20;;;;;;;7.38;4.95;;;3.90;99.90;;;;;;4862783;29;20054;-80
2022/04/09 07:23:47;;;;;;;7.43;4.47;;;4.00;99.90;;;;;;4863069;29;20124;-79
2022/04/09 07:26:16;;;;;;;6.55;4.30;;;3.90;99.90;;;;;;4862770;29;20408;-81
2022/04/09 07:28:43;;;;;;;9.35;4.57;;;3.90;99.90;;;;;;4862738;29;20166;-82
2022/04/09 07:31:10;;;;;;;6.63;4.20;;;3.80;99.90;;;;;;4872315;29;20067;-79
2022/04/09 07:33:37;;;;;;;7.85;4.07;;;3.80;99.90;;;;;;4865522;29;20049;-81
2022/04/09 07:36:07;;;;;;;6.90;4.10;;;3.80;99.90;;;;;;4877100;29;20122;-80
2022/04/09 07:38:34;;;;;;;7.15;3.92;;;3.80;99.90;;;;;;4864167;29;20112;-79
2022/04/09 07:41:02;;;;;;;7.05;4.00;;;3.90;99.90;;;;;;4877458;29;20410;-81
2022/04/09 07:43:29;;;;;;;8.35;4.90;;;4.00;99.90;;;;;;4872094;29;20081;-85
2022/04/09 07:45:57;;;;;;;8.57;3.60;;;4.00;99.90;;;;;;4878687;29;20057;-83
2022/04/09 07:48:24;;;;;;;7.95;4.03;;;4.00;99.90;;;;;;4880886;29;20053;-85
2022/04/09 07:50:51;;;;;;;7.82;3.83;;;3.90;99.90;;;;;;4881777;29;20150;-84
2022/04/09 07:53:19;;;;;;;9.18;3.50;;;4.00;99.90;;;;;;4882019;29;20064;-83
2022/04/09 07:55:46;;;;;;;8.88;3.83;;;4.10;99.90;;;;;;4850420;29;20049;-83
2022/04/09 07:58:15;;;;;;;7.45;3.50;;;4.20;99.90;;;;;;4876693;29;20089;-83
2022/04/09 08:00:44;;;;;;;8.00;3.58;;;4.30;99.90;;;;;;4864290;29;20065;-87
2022/04/09 08:03:14;;;;;;;7.47;3.55;;;4.30;99.90;;;;;;4886585;29;20060;-86
2022/04/09 08:05:41;;;;;;;10.23;3.35;;;4.30;99.90;;;;;;4891748;29;20456;-83
2022/04/09 08:08:08;;;;;;;7.50;3.40;;;4.20;99.90;;;;;;4877852;29;20131;-82
2022/04/09 08:10:39;;;;;;;9.45;3.50;;;4.20;99.90;;;;;;4881192;29;20131;-84
2022/04/09 08:13:06;;;;;;;7.95;2.90;;;4.20;99.90;;;;;;4892410;29;20045;-82
2022/04/09 08:15:34;;;;;;;8.50;3.22;;;4.20;99.90;;;;;;4879697;29;20057;-82
2022/04/09 08:18:04;;;;;;;6.75;2.70;;;4.20;99.90;;;;;;4876199;29;20048;-81
2022/04/09 08:20:31;;;;;;;6.93;2.88;;;4.20;99.90;;;;;;4845055;29;20576;-83
2022/04/09 08:23:00;;;;;;;7.32;2.88;;;4.30;99.90;;;;;;4860822;29;20494;-82
2022/04/09 08:25:27;;;;;;;5.57;2.80;;;4.30;99.90;;;;;;4895984;29;20410;-82
2022/04/09 08:27:56;;;;;;;8.02;2.92;;;4.40;99.90;;;;;;4866161;29;20053;-82
2022/04/09 08:30:24;;;;;;;9.85;3.05;;;4.40;99.90;;;;;;4865302;29;20053;-83
2022/04/09 08:32:52;;;;;;;7.15;2.63;;;4.50;99.90;;;;;;4873903;29;20067;-82
2022/04/09 08:35:20;;;;;;;7.70;2.70;;;4.50;99.90;;;;;;4880124;29;20049;-80
2022/04/09 08:37:54;;;;;;;7.97;2.60;;;4.60;99.90;;;;;;4862277;29;20049;-79
2022/04/09 08:40:22;;;;;;;6.43;2.53;;;4.60;99.90;;;;;;4864648;29;20052;-79
2022/04/09 08:42:49;;;;;;;6.30;2.35;;;4.60;99.90;;;;;;4852621;29;20044;-81
2022/04/09 08:45:18;;;;;;;7.47;2.55;;;4.70;99.90;;;;;;4879522;29;20418;-80
2022/04/09 08:47:46;;;;;;;7.28;2.55;;;4.70;99.90;;;;;;4878688;29;20475;-85
2022/04/09 08:50:15;;;;;;;5.68;2.13;;;4.60;99.90;;;;;;4882565;29;20443;-82
2022/04/09 08:52:44;;;;;;;6.30;2.50;;;4.70;99.90;;;;;;4881162;29;20506;-81
2022/04/09 08:55:13;;;;;;;9.02;2.35;;;4.80;99.90;;;;;;4888926;29;20050;-82
2022/04/09 08:57:41;;;;;;;6.97;2.30;;;4.90;99.90;;;;;;4876824;29;20541;-80
2022/04/09 09:00:13;;;;;;;5.60;2.55;;;4.90;99.90;;;;;;4861596;29;20407;-78
2022/04/09 09:02:51;;;;;;;7.55;2.30;;;5.00;99.90;;;;;;4869933;29;20056;-87
2022/04/09 09:05:35;;;;;;;3.83;1.77;;;5.10;99.90;;;;;;4882322;29;20060;-83
2022/04/09 09:08:03;;;;;;;7.40;2.20;;;5.20;99.90;;;;;;4882774;29;20057;-79
2022/04/09 09:10:31;;;;;;;6.18;2.10;;;5.10;99.90;;;;;;4890354;29;20056;-86
2022/04/09 09:13:03;;;;;;;6.43;1.90;;;5.00;99.90;;;;;;4861490;29;20491;-88
2022/04/09 09:15:31;;;;;;;5.45;2.25;;;5.10;99.90;;;;;;4876853;29;20048;-84
2022/04/09 09:18:00;;;;;;;6.47;2.72;;;5.20;99.90;;;;;;4874316;29;20053;-83
2022/04/09 09:20:27;;;;;;;8.40;2.30;;;5.40;99.90;;;;;;4863286;29;20045;-81
2022/04/09 09:22:55;;;;;;;7.78;2.35;;;5.50;99.90;;;;;;4885956;29;20441;-83
2022/04/09 09:25:22;;;;;;;5.32;2.00;;;5.40;99.90;;;;;;4897069;29;20059;-78
2022/04/09 09:27:59;;;;;;;9.48;2.50;;;5.30;99.80;;;;;;4879298;29;20075;-79
2022/04/09 09:30:28;;;;;;;5.80;2.10;;;5.30;99.90;;;;;;4886092;29;20075;-87
2022/04/09 09:33:11;;;;;;;6.93;2.40;;;5.30;99.90;;;;;;4884767;29;20140;-82
2022/04/09 09:35:53;;;;;;;6.03;2.00;;;5.30;99.50;;;;;;4886043;29;20096;-77
2022/04/09 09:38:23;;;;;;;5.47;2.00;;;5.50;99.90;;;;;;4885327;29;20059;-80
2022/04/09 09:40:51;;;;;;;7.70;2.40;;;5.60;99.10;;;;;;4881623;29;20483;-78
2022/04/09 09:43:19;;;;;;;6.82;2.08;;;5.50;99.30;;;;;;4891874;29;20044;-83
2022/04/09 09:45:47;;;;;;;6.13;2.10;;;5.60;99.90;;;;;;4883049;29;20080;-78
2022/04/09 09:48:26;;;;;;;5.85;1.98;;;5.70;97.80;;;;;;4882955;29;20064;-79
2022/04/09 09:50:55;;;;;;;5.40;1.65;;;5.50;98.20;;;;;;4880934;29;20053;-79
2022/04/09 09:53:29;;;;;;;9.38;1.80;;;5.60;99.10;;;;;;4884946;29;20055;-80
2022/04/09 09:55:57;;;;;;;;;;;5.60;97.50;;;;;;4885291;29;20063;-80
2022/04/09 09:58:24;;;;;;;5.85;1.60;;;5.70;98.30;;;;;;4884731;29;19940;-79
2022/04/09 10:00:51;;;;;;;6.53;1.77;;;5.70;97.60;;;;;;4892825;29;20056;-78
2022/04/09 10:03:20;;;;;;;5.90;2.08;;;5.80;97.60;;;;;;4868928;29;20128;-77
2022/04/09 10:05:50;;;;;;;6.75;1.80;;;5.70;97.90;;;;;;4883815;29;20566;-79
2022/04/09 10:08:19;;;;;;;5.95;1.52;;;5.90;98.10;;;;;;4896211;29;20057;-79
2022/04/09 10:10:48;;;;;;;6.78;1.70;;;5.80;98.30;;;;;;4889590;29;20084;-81
2022/04/09 10:13:20;;;;;;;6.15;1.73;;;5.90;99.10;;;;;;4888752;29;20049;-80
2022/04/09 10:15:51;;;;;;;4.72;1.63;;;5.80;97.80;;;;;;4885683;29;20049;-77
2022/04/09 10:18:23;;;;;;;6.05;2.15;;;5.90;97.70;;;;;;4884799;29;20084;-80
2022/04/09 10:20:59;;;;;;;4.32;1.63;;;5.90;98.40;;;;;;4884348;29;20550;-80
2022/04/09 10:23:32;;;;;;;6.35;1.80;;;6.00;97.00;;;;;;4898296;29;20053;-78
2022/04/09 10:26:01;;;;;;;5.47;1.83;;;5.90;96.70;;;;;;4884370;29;20526;-79
2022/04/09 10:28:34;;;;;;;7.47;1.88;;;6.00;95.80;;;;;;4883700;29;20057;-80
2022/04/09 10:31:03;;;;;;;7.78;1.95;;;5.90;95.40;;;;;;4884766;29;20440;-81
2022/04/09 10:33:36;;;;;;;5.95;1.42;;;6.10;96.30;;;;;;4882122;29;20045;-79
2022/04/09 10:36:05;;;;;;;5.93;1.63;;;6.20;94.60;;;;;;4883018;29;20097;-78
2022/04/09 10:38:36;;;;;;;6.15;1.40;;;6.30;96.30;;;;;;4881834;29;20121;-80
2022/04/09 10:41:28;;;;;;;5.72;1.88;;;6.30;96.40;;;;;;4881544;29;20061;-79
2022/04/09 10:43:59;;;;;;;7.75;1.52;;;6.20;96.40;;;;;;4876880;29;20077;-79
2022/04/09 10:46:35;;;;;;;4.90;1.50;;;6.20;95.20;;;;;;4872678;29;20136;-79
2022/04/09 10:49:27;;;;;;;5.30;1.60;;;6.30;95.40;;;;;;4881559;29;20140;-79
2022/04/09 10:52:23;;;;;;;6.10;1.50;;;6.20;93.70;;;;;;4877408;29;20538;-81
2022/04/09 10:55:24;;;;;;;5.43;1.60;;;6.20;93.80;;;;;;4881414;29;20483;-78
2022/04/09 10:58:00;;;;;;;6.47;1.45;;;6.30;94.40;;;;;;4838127;29;20118;-80
2022/04/09 11:00:34;;;;;;;7.57;1.50;;;6.30;94.20;;;;;;4870733;29;20053;-79
2022/04/09 11:03:37;;;;;;;4.80;1.60;;;6.20;92.80;;;;;;4880571;29;20091;-86
2022/04/09 11:06:40;;;;;;;6.43;2.28;;;6.10;94.50;;;;;;4886199;29;20057;-87
2022/04/09 11:09:09;;;;;;;4.57;1.70;;;6.20;95.40;;;;;;4882316;29;20109;-87
2022/04/09 11:11:37;;;;;;;7.95;1.77;;;6.50;95.20;;;;;;4879542;29;20055;-80
2022/04/09 11:14:04;;;;;;;7.05;1.88;;;6.50;94.60;;;;;;4879620;29;20053;-79
2022/04/09 11:16:35;;;;;;;6.68;1.80;;;6.70;93.00;;;;;;4880137;29;20188;-80
2022/04/09 11:19:03;;;;;;;6.78;1.55;;;6.80;93.80;;;;;;4878918;29;20048;-80
2022/04/09 11:21:31;;;;;;;6.88;1.58;;;6.60;93.10;;;;;;4862080;29;20044;-82
2022/04/09 11:24:08;;;;;;;3.83;1.25;;;6.60;93.50;;;;;;4880911;29;20056;-83
2022/04/09 11:26:35;;;;;;;7.30;1.63;;;6.40;94.00;;;;;;4873483;29;20057;-82
2022/04/09 11:29:10;;;;;;;7.50;1.67;;;6.30;91.30;;;;;;4872738;29;20077;-83
2022/04/09 11:31:46;;;;;;;6.72;1.75;;;6.40;91.40;;;;;;4880481;29;20057;-81
2022/04/09 11:34:14;;;;;;;5.78;1.80;;;6.40;91.90;;;;;;4877214;29;20049;-83
2022/04/09 11:36:41;;;;;;;8.20;2.13;;;6.60;93.80;;;;;;4880811;29;20064;-82
2022/04/09 11:39:11;;;;;;;5.60;1.55;;;6.60;91.10;;;;;;4880149;29;20065;-84
2022/04/09 11:41:38;;;;;;;5.45;1.50;;;6.60;92.00;;;;;;4886074;29;20140;-83
2022/04/09 11:44:05;;;;;;;6.10;1.95;;;6.60;91.50;;;;;;4900426;29;20057;-83
2022/04/09 11:46:44;;;;;;;7.07;2.45;;;6.50;90.60;;;;;;4888512;29;20049;-86
2022/04/09 11:49:11;;;;;;;5.20;1.73;;;6.60;92.10;;;;;;4872210;29;20430;-83
2022/04/09 11:51:39;;;;;;;8.73;1.98;;;6.70;90.20;;;;;;4874569;29;20132;-83
2022/04/09 11:54:18;;;;;;;5.35;1.50;;;6.70;91.70;;;;;;4876116;29;20145;-84
2022/04/09 11:56:45;;;;;;;7.85;1.70;;;6.70;89.20;;;;;;4881749;29;20171;-83
2022/04/09 11:59:13;;;;;;;7.30;2.03;;;6.60;90.80;;;;;;4880645;29;20392;-81
2022/04/09 12:01:45;;;;;;;5.18;1.40;;;7.00;91.60;;;;;;4880647;29;20099;-82
2022/04/09 12:04:13;;;;;;;6.80;1.73;;;7.20;91.50;;;;;;4864914;29;20053;-82
2022/04/09 12:06:41;;;;;;;4.05;1.88;;;7.30;91.60;;;;;;4871353;29;20063;-84
2022/04/09 12:09:08;;;;;;;5.45;1.50;;;7.10;88.00;;;;;;4861147;29;20054;-83
2022/04/09 12:11:42;;;;;;;7.90;2.35;;;6.80;84.40;;;;;;4874208;29;20057;-81
2022/04/09 12:14:09;;;;;;;5.15;1.50;;;6.90;89.30;;;;;;4878361;29;20049;-80
2022/04/09 12:16:40;;;;;;;6.05;1.60;;;6.90;90.30;;;;;;4878395;29;20136;-80
2022/04/09 12:19:08;;;;;;;6.50;1.70;;;7.10;89.10;;;;;;4878110;29;20514;-79
2022/04/09 12:21:36;;;;;;;5.30;1.73;;;7.20;90.60;;;;;;4875160;29;20149;-81
2022/04/09 12:24:05;;;;;;;6.43;1.70;;;7.20;90.70;;;;;;4878262;29;20149;-81
2022/04/09 12:26:36;;;;;;;5.03;1.60;;;7.40;89.00;;;;;;4881026;29;20057;-79
2022/04/09 12:29:09;;;;;;;4.85;1.25;;;7.40;85.10;;;;;;4895390;29;20486;-81
2022/04/09 12:31:37;;;;;;;6.35;1.70;;;7.70;81.50;;;;;;4896007;29;20056;-81
2022/04/09 12:34:05;;;;;;;4.65;1.98;;;7.80;83.20;;;;;;4896743;29;20052;-83
2022/04/09 12:36:33;;;;;;;4.57;1.30;;;7.70;78.90;;;;;;4896576;29;20467;-82
2022/04/09 12:39:00;;;;;;;6.90;1.60;;;7.60;77.40;;;;;;4889294;29;20137;-80
2022/04/09 12:41:28;;;;;;;6.10;1.73;;;7.90;77.10;;;;;;4877956;29;20052;-81
2022/04/09 12:43:56;;;;;;;5.85;1.75;;;7.90;81.80;;;;;;4877879;29;20134;-82
2022/04/09 12:46:23;;;;;;;4.97;1.70;;;7.50;82.60;;;;;;4874606;29;20496;-81
2022/04/09 12:48:52;;;;;;;5.20;1.83;;;7.60;83.80;;;;;;4865489;29;20080;-80
2022/04/09 12:51:22;;;;;;;6.60;2.08;;;7.40;86.70;;;;;;4874713;29;20087;-83
2022/04/09 12:53:51;;;;;;;5.65;1.50;;;7.40;86.00;;;;;;4875170;29;20496;-81
2022/04/09 12:56:19;;;;;;;6.38;1.70;;;7.40;86.60;;;;;;4858933;29;20465;-80
2022/04/09 12:58:47;;;;;;;6.15;1.52;;;7.40;84.70;;;;;;4860359;29;20065;-82
2022/04/09 13:01:17;;;;;;;5.15;1.30;;;7.50;78.60;;;;;;4859824;29;20092;-80
2022/04/09 13:03:44;;;;;;;4.68;1.20;;;7.70;71.70;;;;;;4861717;29;20395;-82
2022/04/09 13:06:11;;;;;;;5.78;1.50;;;8.10;74.50;;;;;;4894002;29;20045;-83
2022/04/09 13:08:38;;;;;;;6.03;1.60;;;8.50;73.10;;;;;;4887342;29;20064;-83
2022/04/09 13:11:07;;;;;;;5.18;1.40;;;8.60;73.50;;;;;;4873581;29;20053;-83
2022/04/09 13:13:34;;;;;;;4.13;1.25;;;8.40;72.30;;;;;;4869880;29;20060;-82
2022/04/09 13:16:02;;;;;;;4.75;1.40;;;8.20;72.10;;;;;;4866743;29;20085;-82
2022/04/09 13:18:30;;;;;;;5.45;1.52;;;8.20;70.60;;;;;;4848567;29;20132;-80
2022/04/09 13:20:57;;;;;;;7.03;1.60;;;8.50;72.40;;;;;;4866230;29;20049;-82
2022/04/09 13:23:24;;;;;;;5.28;1.73;;;8.60;70.50;;;;;;4857973;29;20056;-78
2022/04/09 13:25:53;;;;;;;6.10;2.00;;;8.30;70.60;;;;;;4878065;29;20041;-78
2022/04/09 13:28:20;;;;;;;6.07;1.77;;;8.30;69.80;;;;;;4871288;29;20082;-80
2022/04/09 13:30:47;;;;;;;6.32;2.60;;;8.10;71.30;;;;;;4881814;29;20106;-79
2022/04/09 13:33:15;;;;;;;6.90;1.70;;;8.00;69.30;;;;;;4877851;29;20048;-81
2022/04/09 13:35:43;;;;;;;3.92;1.30;;;8.30;68.20;;;;;;4880388;29;20067;-81
2022/04/09 13:38:11;;;;;;;5.75;1.27;;;8.50;70.80;;;;;;4876373;29;20502;-81
2022/04/09 13:40:38;;;;;;;5.45;1.65;;;8.30;68.30;;;;;;4859000;29;20080;-79
2022/04/09 13:43:05;;;;;;;5.53;1.67;;;8.10;72.10;;;;;;4854058;29;20060;-79
2022/04/09 13:45:32;;;;;;;5.72;1.40;;;9.00;70.20;;;;;;4870659;29;20529;-79
2022/04/09 13:48:00;;;;;;;4.32;1.42;;;9.30;68.50;;;;;;4875413;29;20567;-79
2022/04/09 13:50:27;;;;;;;5.32;1.50;;;8.80;67.30;;;;;;4890820;29;20069;-80
2022/04/09 13:52:55;;;;;;;5.53;1.58;;;8.50;70.00;;;;;;4871556;29;20400;-79
2022/04/09 13:55:23;;;;;;;5.50;1.40;;;8.30;70.70;;;;;;4861083;29;20053;-81
2022/04/09 13:57:50;;;;;;;5.97;1.65;;;8.70;71.70;;;;;;4858585;29;20057;-79
2022/04/09 14:00:19;;;;;;;4.40;1.40;;;9.90;68.80;;;;;;4869742;29;20498;-80
2022/04/09 14:02:46;;;;;;;3.60;1.48;;;10.50;62.20;;;;;;4865395;29;20060;-79
2022/04/09 14:05:13;;;;;;;5.93;1.10;;;9.90;60.00;;;;;;4857762;29;20144;-79
2022/04/09 14:07:41;;;;;;;3.55;1.20;;;9.90;56.50;;;;;;4857983;29;20053;-79
2022/04/09 14:10:11;;;;;;;3.95;1.05;;;9.80;56.20;;;;;;4862476;29;20046;-80
2022/04/09 14:12:38;;;;;;;4.40;1.20;;;10.80;58.00;;;;;;4859034;29;20049;-80
2022/04/09 14:15:06;;;;;;;4.15;1.42;;;11.50;61.10;;;;;;4876927;29;20053;-78
2022/04/09 14:17:33;;;;;;;4.78;1.17;;;10.30;53.50;;;;;;4879825;29;20053;-80
2022/04/09 14:20:01;;;;;;;4.63;1.10;;;9.10;57.00;;;;;;4880374;29;20099;-83
2022/04/09 14:22:28;;;;;;;4.07;1.00;;;9.10;58.80;;;;;;4865271;29;20060;-83
2022/04/09 14:24:55;;;;;;;4.10;1.63;;;8.60;60.30;;;;;;4875740;29;20579;-83
2022/04/09 14:27:24;;;;;;;3.95;1.20;;;8.80;60.50;;;;;;4875296;29;20137;-82
2022/04/09 14:29:51;;;;;;;5.07;1.40;;;9.20;61.80;;;;;;4868927;29;20133;-85
2022/04/09 14:32:18;;;;;;;5.32;1.50;;;10.00;60.30;;;;;;4873526;29;20126;-83
2022/04/09 14:34:45;;;;;;;3.65;1.17;;;10.70;57.10;;;;;;4872543;29;20057;-82
2022/04/09 14:37:12;;;;;;;4.22;1.10;;;11.30;58.30;;;;;;4864581;29;20480;-83
2022/04/09 14:39:39;;;;;;;4.00;1.20;;;12.00;53.50;;;;;;4880565;29;20101;-84
2022/04/09 14:42:08;;;;;;;5.18;1.38;;;12.20;52.50;;;;;;4863801;29;20053;-79
2022/04/09 14:44:37;;;;;;;3.70;1.15;;;12.60;52.00;;;;;;4865888;29;20045;-81
2022/04/09 14:47:06;;;;;;;4.32;1.45;;;12.50;52.10;;;;;;4879765;29;20455;-81
2022/04/09 14:49:33;;;;;;;3.35;1.10;;;12.30;51.20;;;;;;4870995;29;20053;-80
2022/04/09 14:52:01;;;;;;;4.07;1.10;;;12.50;51.40;;;;;;4868843;29;20052;-76
2022/04/09 14:54:28;;;;;;;3.55;1.13;;;11.60;50.80;;;;;;4885646;29;20063;-79
2022/04/09 14:56:55;;;;;;;4.35;1.13;;;11.30;55.60;;;;;;4885892;29;20511;-80
2022/04/09 14:59:22;;;;;;;3.30;1.00;;;12.30;52.80;;;;;;4869882;29;20063;-78
2022/04/09 15:01:52;;;;;;;3.70;1.17;;;12.70;50.60;;;;;;4877331;29;20140;-80
2022/04/09 15:04:19;;;;;;;3.65;1.13;;;13.10;51.30;;;;;;4881493;29;20503;-77
2022/04/09 15:06:46;;;;;;;3.20;1.10;;;13.20;50.20;;;;;;4887138;29;20057;-78
2022/04/09 15:09:13;;;;;;;4.70;1.10;;;12.80;51.30;;;;;;4887669;29;20048;-79
2022/04/09 15:11:40;;;;;;;4.72;1.33;;;13.40;50.10;;;;;;4895657;29;20063;-82
2022/04/09 15:14:08;;;;;;;4.25;1.30;;;13.50;50.20;;;;;;4886821;29;20554;-81
2022/04/09 15:16:35;;;;;;;3.35;1.20;;;13.40;49.60;;;;;;4896358;29;20483;-78
2022/04/09 15:19:07;;;;;;;3.70;1.10;;;13.40;49.90;;;;;;4899840;29;20513;-79
2022/04/09 15:21:34;;;;;;;5.72;1.55;;;14.10;49.50;;;;;;4884400;29;20114;-76
2022/04/09 15:24:01;;;;;;;6.55;1.27;;;14.20;48.50;;;;;;4864511;29;20061;-79
2022/04/09 15:26:29;;;;;;;4.63;1.20;;;13.80;50.30;;;;;;4874539;29;20466;-79
2022/04/09 15:28:56;;;;;;;4.65;1.50;;;14.00;49.30;;;;;;4861678;29;20128;-82
2022/04/09 15:31:23;;;;;;;5.22;1.73;;;13.80;51.10;;;;;;4878954;29;20144;-84
2022/04/09 15:33:51;;;;;;;4.47;1.20;;;14.00;48.70;;;;;;4881892;29;20480;-84
2022/04/09 15:36:19;;;;;;;3.45;1.20;;;14.00;48.90;;;;;;4879776;29;20053;-84
2022/04/09 15:38:47;;;;;;;4.28;1.25;;;14.30;48.20;;;;;;4876155;29;20063;-78
2022/04/09 15:41:16;;;;;;;3.65;1.10;;;13.40;49.80;;;;;;4877399;29;20583;-79
2022/04/09 15:43:43;;;;;;;4.05;1.20;;;13.80;48.70;;;;;;4879727;29;20056;-79
2022/04/09 15:46:10;;;;;;;5.00;1.30;;;14.00;48.60;;;;;;4871054;29;20173;-80
2022/04/09 15:48:37;;;;;;;4.32;1.17;;;14.40;49.00;;;;;;4870395;29;20052;-79
2022/04/09 15:51:08;;;;;;;3.42;1.30;;;13.70;49.80;;;;;;4889071;29;20056;-83
2022/04/09 15:53:37;;;;;;;5.55;1.17;;;13.90;47.20;;;;;;4878024;29;20059;-80
2022/04/09 15:56:04;;;;;;;4.35;1.15;;;13.40;48.80;;;;;;4877185;29;20567;-85
2022/04/09 15:58:32;;;;;;;4.00;1.40;;;13.60;47.20;;;;;;4896776;29;20577;-80
2022/04/09 16:00:59;;;;;;;6.90;1.58;;;13.10;48.70;;;;;;4898304;29;20499;-80
2022/04/09 16:03:28;;;;;;;3.50;1.08;;;12.60;50.90;;;;;;4899121;29;20052;-80
2022/04/09 16:05:55;;;;;;;4.25;1.30;;;12.80;51.70;;;;;;4873446;29;20482;-80
2022/04/09 16:08:22;;;;;;;3.60;1.10;;;13.10;51.60;;;;;;4877607;29;20080;-79
2022/04/09 16:10:50;;;;;;;4.57;1.00;;;13.00;51.80;;;;;;4871003;29;20056;-77
2022/04/09 16:13:17;;;;;;;4.75;1.17;;;14.80;51.80;;;;;;4878306;29;20053;-79
2022/04/09 16:15:44;;;;;;;3.95;1.10;;;14.80;51.40;;;;;;4876248;29;20053;-75
2022/04/09 16:18:12;;;;;;;4.32;1.30;;;15.10;50.90;;;;;;4878837;29;20053;-79
2022/04/09 16:20:40;;;;;;;5.72;1.33;;;14.40;51.90;;;;;;4889670;29;20056;-80
2022/04/09 16:23:08;;;;;;;4.97;1.10;;;13.20;49.90;;;;;;4876350;29;20057;-79
2022/04/09 16:25:35;;;;;;;5.07;1.17;;;13.00;50.80;;;;;;4861425;29;20057;-80
2022/04/09 16:28:05;;;;;;;3.70;1.10;;;12.90;51.50;;;;;;4874990;29;20053;-78
2022/04/09 16:30:32;;;;;;;3.05;1.00;;;13.20;49.60;;;;;;4869060;29;20083;-78
2022/04/09 16:32:59;;;;;;;3.47;1.10;;;12.80;49.80;;;;;;4871820;29;20697;-79
2022/04/09 16:35:26;;;;;;;3.20;1.10;;;12.30;52.30;;;;;;4868405;29;20076;-80
2022/04/09 16:37:53;;;;;;;2.40;0.88;;;12.30;51.40;;;;;;4883549;29;20052;-78
2022/04/09 16:40:22;;;;;;;3.35;1.00;;;12.00;51.20;;;;;;4889029;29;20065;-79
2022/04/09 16:42:49;;;;;;;3.20;1.02;;;11.90;51.40;;;;;;4889869;29;20060;-80
2022/04/09 16:45:18;;;;;;;3.42;1.23;;;11.90;52.00;;;;;;4885011;29;20041;-77
2022/04/09 16:47:46;;;;;;;3.30;1.00;;;11.60;53.40;;;;;;4882728;29;20059;-78
2022/04/09 16:50:13;;;;;;;3.80;1.10;;;11.60;53.50;;;;;;4890568;29;20044;-79
2022/04/09 16:52:40;;;;;;;4.32;1.35;;;11.80;53.80;;;;;;4894774;29;20052;-76
2022/04/09 16:55:08;;;;;;;6.07;1.45;;;11.70;53.80;;;;;;4877818;29;20492;-78
2022/04/09 16:57:35;;;;;;;3.70;1.10;;;12.00;53.20;;;;;;4882738;29;20064;-78
2022/04/09 17:00:03;;;;;;;4.35;1.23;;;12.00;54.40;;;;;;4873844;29;20156;-77
2022/04/09 17:02:32;;;;;;;4.47;1.20;;;11.80;54.50;;;;;;4878447;29;20139;-81
2022/04/09 17:04:59;;;;;;;5.32;1.27;;;11.50;54.70;;;;;;4892306;29;20063;-78
2022/04/09 17:07:26;;;;;;;4.10;1.10;;;11.40;55.40;;;;;;4893085;29;20049;-79
2022/04/09 17:09:54;;;;;;;3.25;1.10;;;11.10;53.30;;;;;;4887599;29;20376;-79
2022/04/09 17:12:21;;;;;;;3.20;1.00;;;10.60;55.40;;;;;;4866331;29;20053;-80
2022/04/09 17:14:48;;;;;;;8.13;3.28;;;10.90;55.60;;;;;;4869289;29;20049;-80
2022/04/09 17:17:15;;;;;;;5.20;1.38;;;10.90;54.80;;;;;;4893313;29;20410;-77
2022/04/09 17:19:44;;;;;;;6.25;1.80;;;10.80;55.30;;;;;;4883399;29;20060;-80
2022/04/09 17:22:11;;;;;;;3.67;1.10;;;10.90;56.10;;;;;;4877767;29;20799;-80
2022/04/09 17:24:39;;;;;;;6.43;1.52;;;10.90;57.00;;;;;;4893323;29;20063;-79
2022/04/09 17:27:08;;;;;;;4.55;1.45;;;10.60;55.20;;;;;;4892535;29;20057;-80
2022/04/09 17:29:35;;;;;;;6.72;1.40;;;10.20;56.30;;;;;;4887700;29;20589;-81
2022/04/09 17:32:02;;;;;;;3.60;1.27;;;9.60;58.10;;;;;;4871112;29;20056;-79
2022/04/09 17:34:29;;;;;;;3.15;1.00;;;9.40;58.00;;;;;;4876209;29;20053;-80
2022/04/09 17:37:00;;;;;;;4.95;1.40;;;9.10;59.20;;;;;;4871106;29;20061;-82
2022/04/09 17:39:28;;;;;;;5.75;1.30;;;8.90;59.70;;;;;;4886275;29;20463;-79
2022/04/09 17:41:55;;;;;;;3.15;1.25;;;9.00;60.10;;;;;;4866516;29;20591;-81
2022/04/09 17:44:23;;;;;;;4.60;1.55;;;9.10;60.60;;;;;;4883566;29;20053;-79
2022/04/09 17:46:50;;;;;;;4.20;1.25;;;8.90;61.30;;;;;;4883471;29;20649;-80
2022/04/09 17:49:18;;;;;;;4.20;1.38;;;8.80;61.50;;;;;;4864748;29;20053;-79
2022/04/09 17:51:45;;;;;;;3.97;1.20;;;8.60;61.60;;;;;;4875547;29;20048;-80
2022/04/09 17:54:14;;;;;;;24.52;9.85;;;8.50;62.40;;;;;;4878999;29;20511;-80
2022/04/09 17:56:42;;;;;;;6.05;1.50;;;8.40;62.90;;;;;;4878655;29;20067;-78
2022/04/09 17:59:09;;;;;;;4.45;1.17;;;8.20;64.50;;;;;;4874393;29;20754;-79
2022/04/09 18:01:37;;;;;;;4.03;1.45;;;8.20;64.40;;;;;;4867279;29;20061;-82
2022/04/09 18:04:05;;;;;;;5.28;1.42;;;8.10;64.90;;;;;;4868744;29;20160;-82